sensor_id;sensor_type;location;lat;lon;timestamp;temperature;humidity
5461;DHT22;2753;49.196;8.286;2022-12-24T00:01:30;11.80;99.90
5461;DHT22;2753;49.196;8.286;2022-12-24T00:04:01;11.80;99.90
5461;DHT22;2753;49.196;8.286;2022-12-24T00:06:34;11.80;99.90
5461;DHT22;2753;49.196;8.286;2022-12-24T00:09:15;11.80;99.90
5461;DHT22;2753;49.196;8.286;2022-12-24T00:12:08;11.80;99.90
5461;DHT22;2753;49.196;8.286;2022-12-24T00:14:36;11.80;99.90
5461;DHT22;2753;49.196;8.286;2022-12-24T00:17:02;11.80;99.90
5461;DHT22;2753;49.196;8.286;2022-12-24T00:19:27;11.80;99.90
5461;DHT22;2753;49.196;8.286;2022-12-24T00:21:53;11.80;99.90
5461;DHT22;2753;49.196;8.286;2022-12-24T00:24:19;11.80;99.90
5461;DHT22;2753;49.196;8.286;2022-12-24T00:26:44;11.80;99.90
5461;DHT22;2753;49.196;8.286;2022-12-24T00:29:11;11.80;99.90
5461;DHT22;2753;49.196;8.286;2022-12-24T00:31:38;11.80;99.90
5461;DHT22;2753;49.196;8.286;2022-12-24T00:34:04;11.80;99.90
5461;DHT22;2753;49.196;8.286;2022-12-24T00:36:29;11.80;99.90
5461;DHT22;2753;49.196;8.286;2022-12-24T00:38:55;11.80;99.90
5461;DHT22;2753;49.196;8.286;2022-12-24T00:41:22;11.80;99.90
5461;DHT22;2753;49.196;8.286;2022-12-24T00:43:52;11.80;99.90
5461;DHT22;2753;49.196;8.286;2022-12-24T00:46:19;11.80;99.90
5461;DHT22;2753;49.196;8.286;2022-12-24T00:48:44;11.80;99.90
5461;DHT22;2753;49.196;8.286;2022-12-24T00:51:10;11.80;99.90
5461;DHT22;2753;49.196;8.286;2022-12-24T00:53:36;11.80;99.90
5461;DHT22;2753;49.196;8.286;2022-12-24T00:56:01;11.80;99.90
5461;DHT22;2753;49.196;8.286;2022-12-24T00:58:27;11.80;99.90
5461;DHT22;2753;49.196;8.286;2022-12-24T01:00:52;11.80;99.90
5461;DHT22;2753;49.196;8.286;2022-12-24T01:03:18;11.80;99.90
5461;DHT22;2753;49.196;8.286;2022-12-24T01:05:44;11.80;99.90
5461;DHT22;2753;49.196;8.286;2022-12-24T01:08:09;11.80;99.90
5461;DHT22;2753;49.196;8.286;2022-12-24T01:10:35;11.70;99.90
5461;DHT22;2753;49.196;8.286;2022-12-24T01:13:01;11.80;99.90
5461;DHT22;2753;49.196;8.286;2022-12-24T01:15:27;11.70;99.90
5461;DHT22;2753;49.196;8.286;2022-12-24T01:17:53;11.70;99.90
5461;DHT22;2753;49.196;8.286;2022-12-24T01:20:19;11.70;99.90
5461;DHT22;2753;49.196;8.286;2022-12-24T01:22:45;11.80;99.90
5461;DHT22;2753;49.196;8.286;2022-12-24T01:25:13;11.80;99.90
5461;DHT22;2753;49.196;8.286;2022-12-24T01:27:39;11.80;99.90
5461;DHT22;2753;49.196;8.286;2022-12-24T01:30:07;11.70;99.90
5461;DHT22;2753;49.196;8.286;2022-12-24T01:32:33;11.70;99.90
5461;DHT22;2753;49.196;8.286;2022-12-24T01:34:59;11.70;99.90
5461;DHT22;2753;49.196;8.286;2022-12-24T01:37:25;11.70;99.90
5461;DHT22;2753;49.196;8.286;2022-12-24T01:39:51;11.60;99.90
5461;DHT22;2753;49.196;8.286;2022-12-24T01:42:45;11.60;99.90
5461;DHT22;2753;49.196;8.286;2022-12-24T01:46:13;12.30;99.90
5461;DHT22;2753;49.196;8.286;2022-12-24T01:48:40;11.60;99.90
5461;DHT22;2753;49.196;8.286;2022-12-24T01:53:48;11.50;99.90
5461;DHT22;2753;49.196;8.286;2022-12-24T01:56:18;11.00;99.90
5461;DHT22;2753;49.196;8.286;2022-12-24T01:58:46;11.50;99.90
5461;DHT22;2753;49.196;8.286;2022-12-24T02:01:13;11.50;99.90
5461;DHT22;2753;49.196;8.286;2022-12-24T02:03:39;11.50;99.90
5461;DHT22;2753;49.196;8.286;2022-12-24T02:06:05;11.50;99.90
5461;DHT22;2753;49.196;8.286;2022-12-24T02:08:32;11.50;99.90
5461;DHT22;2753;49.196;8.286;2022-12-24T02:11:12;11.50;99.90
5461;DHT22;2753;49.196;8.286;2022-12-24T02:13:41;11.50;99.90
5461;DHT22;2753;49.196;8.286;2022-12-24T02:16:36;11.50;99.90
5461;DHT22;2753;49.196;8.286;2022-12-24T02:22:20;11.50;99.90
5461;DHT22;2753;49.196;8.286;2022-12-24T02:25:20;11.40;99.90
5461;DHT22;2753;49.196;8.286;2022-12-24T02:30:32;11.40;99.90
5461;DHT22;2753;49.196;8.286;2022-12-24T02:35:49;11.40;99.90
5461;DHT22;2753;49.196;8.286;2022-12-24T02:41:13;11.40;99.90
5461;DHT22;2753;49.196;8.286;2022-12-24T02:43:43;11.40;99.90
5461;DHT22;2753;49.196;8.286;2022-12-24T02:46:16;11.40;99.90
5461;DHT22;2753;49.196;8.286;2022-12-24T02:48:43;11.40;99.90
5461;DHT22;2753;49.196;8.286;2022-12-24T02:51:12;11.40;99.90
5461;DHT22;2753;49.196;8.286;2022-12-24T02:53:38;11.40;99.90
5461;DHT22;2753;49.196;8.286;2022-12-24T03:05:12;11.30;99.90
5461;DHT22;2753;49.196;8.286;2022-12-24T03:10:38;11.30;99.90
5461;DHT22;2753;49.196;8.286;2022-12-24T03:13:14;11.30;99.90
5461;DHT22;2753;49.196;8.286;2022-12-24T03:15:41;11.30;99.90
5461;DHT22;2753;49.196;8.286;2022-12-24T03:18:12;11.30;99.90
5461;DHT22;2753;49.196;8.286;2022-12-24T03:20:46;11.30;99.90
5461;DHT22;2753;49.196;8.286;2022-12-24T03:23:13;11.30;99.90
5461;DHT22;2753;49.196;8.286;2022-12-24T03:25:41;11.30;99.90
5461;DHT22;2753;49.196;8.286;2022-12-24T03:28:09;11.30;99.90
5461;DHT22;2753;49.196;8.286;2022-12-24T03:30:39;11.30;99.90
5461;DHT22;2753;49.196;8.286;2022-12-24T03:33:05;11.30;99.90
5461;DHT22;2753;49.196;8.286;2022-12-24T03:35:31;11.30;99.90
5461;DHT22;2753;49.196;8.286;2022-12-24T03:37:57;11.30;99.90
5461;DHT22;2753;49.196;8.286;2022-12-24T03:40:22;11.30;99.90
5461;DHT22;2753;49.196;8.286;2022-12-24T03:42:48;11.30;99.90
5461;DHT22;2753;49.196;8.286;2022-12-24T03:45:14;11.30;99.90
5461;DHT22;2753;49.196;8.286;2022-12-24T03:47:40;11.30;99.90
5461;DHT22;2753;49.196;8.286;2022-12-24T03:50:06;11.30;99.90
5461;DHT22;2753;49.196;8.286;2022-12-24T03:52:32;11.30;99.90
5461;DHT22;2753;49.196;8.286;2022-12-24T03:54:57;11.30;99.90
5461;DHT22;2753;49.196;8.286;2022-12-24T03:57:26;11.20;99.90
5461;DHT22;2753;49.196;8.286;2022-12-24T03:59:52;11.20;99.90
5461;DHT22;2753;49.196;8.286;2022-12-24T04:02:17;11.20;99.90
5461;DHT22;2753;49.196;8.286;2022-12-24T04:04:43;11.20;99.90
5461;DHT22;2753;49.196;8.286;2022-12-24T04:07:09;11.20;99.90
5461;DHT22;2753;49.196;8.286;2022-12-24T04:09:35;11.20;99.90
5461;DHT22;2753;49.196;8.286;2022-12-24T04:12:01;11.20;99.90
5461;DHT22;2753;49.196;8.286;2022-12-24T04:14:27;11.20;99.90
5461;DHT22;2753;49.196;8.286;2022-12-24T04:16:52;11.20;99.90
5461;DHT22;2753;49.196;8.286;2022-12-24T04:19:18;11.20;99.90
5461;DHT22;2753;49.196;8.286;2022-12-24T04:21:44;11.20;99.90
5461;DHT22;2753;49.196;8.286;2022-12-24T04:24:10;11.20;99.90
5461;DHT22;2753;49.196;8.286;2022-12-24T04:26:35;11.20;99.90
5461;DHT22;2753;49.196;8.286;2022-12-24T04:29:01;11.20;99.90
5461;DHT22;2753;49.196;8.286;2022-12-24T04:31:26;11.20;99.90
5461;DHT22;2753;49.196;8.286;2022-12-24T04:33:52;11.20;99.90
5461;DHT22;2753;49.196;8.286;2022-12-24T04:36:19;11.20;99.90
5461;DHT22;2753;49.196;8.286;2022-12-24T04:38:46;11.10;99.90
5461;DHT22;2753;49.196;8.286;2022-12-24T04:41:19;11.10;99.90
5461;DHT22;2753;49.196;8.286;2022-12-24T04:43:45;11.20;99.90
5461;DHT22;2753;49.196;8.286;2022-12-24T04:46:14;11.10;99.90
5461;DHT22;2753;49.196;8.286;2022-12-24T04:48:42;11.20;99.90
5461;DHT22;2753;49.196;8.286;2022-12-24T04:51:09;11.10;99.90
5461;DHT22;2753;49.196;8.286;2022-12-24T04:53:36;11.10;99.90
5461;DHT22;2753;49.196;8.286;2022-12-24T04:56:02;11.10;99.90
5461;DHT22;2753;49.196;8.286;2022-12-24T04:58:28;11.10;99.90
5461;DHT22;2753;49.196;8.286;2022-12-24T05:00:54;11.10;99.90
5461;DHT22;2753;49.196;8.286;2022-12-24T05:03:20;11.10;99.90
5461;DHT22;2753;49.196;8.286;2022-12-24T05:05:46;11.10;99.90
5461;DHT22;2753;49.196;8.286;2022-12-24T05:08:12;11.10;99.90
5461;DHT22;2753;49.196;8.286;2022-12-24T05:10:37;11.20;99.90
5461;DHT22;2753;49.196;8.286;2022-12-24T05:13:03;11.10;99.90
5461;DHT22;2753;49.196;8.286;2022-12-24T05:15:29;11.10;99.90
5461;DHT22;2753;49.196;8.286;2022-12-24T05:17:55;11.10;99.90
5461;DHT22;2753;49.196;8.286;2022-12-24T05:20:20;11.10;99.90
5461;DHT22;2753;49.196;8.286;2022-12-24T05:22:46;11.10;99.90
5461;DHT22;2753;49.196;8.286;2022-12-24T05:25:37;11.20;99.90
5461;DHT22;2753;49.196;8.286;2022-12-24T05:28:22;11.20;99.90
5461;DHT22;2753;49.196;8.286;2022-12-24T05:30:49;11.20;99.90
5461;DHT22;2753;49.196;8.286;2022-12-24T05:33:14;11.20;99.90
5461;DHT22;2753;49.196;8.286;2022-12-24T05:35:40;11.20;99.90
5461;DHT22;2753;49.196;8.286;2022-12-24T05:38:06;11.10;99.90
5461;DHT22;2753;49.196;8.286;2022-12-24T05:40:31;11.10;99.90
5461;DHT22;2753;49.196;8.286;2022-12-24T05:42:57;11.10;99.90
5461;DHT22;2753;49.196;8.286;2022-12-24T05:45:23;11.10;99.90
5461;DHT22;2753;49.196;8.286;2022-12-24T05:47:48;11.10;99.90
5461;DHT22;2753;49.196;8.286;2022-12-24T05:50:14;11.10;99.90
5461;DHT22;2753;49.196;8.286;2022-12-24T05:52:39;11.10;99.90
5461;DHT22;2753;49.196;8.286;2022-12-24T05:55:05;11.10;99.90
5461;DHT22;2753;49.196;8.286;2022-12-24T05:57:31;11.10;99.90
5461;DHT22;2753;49.196;8.286;2022-12-24T05:59:57;11.10;99.90
5461;DHT22;2753;49.196;8.286;2022-12-24T06:02:22;11.10;99.90
5461;DHT22;2753;49.196;8.286;2022-12-24T06:04:48;11.10;99.90
5461;DHT22;2753;49.196;8.286;2022-12-24T06:07:14;11.10;99.90
5461;DHT22;2753;49.196;8.286;2022-12-24T06:09:39;11.10;99.90
5461;DHT22;2753;49.196;8.286;2022-12-24T06:12:05;11.10;99.90
5461;DHT22;2753;49.196;8.286;2022-12-24T06:14:31;11.10;99.90
5461;DHT22;2753;49.196;8.286;2022-12-24T06:16:56;11.10;99.90
5461;DHT22;2753;49.196;8.286;2022-12-24T06:19:22;11.00;99.90
5461;DHT22;2753;49.196;8.286;2022-12-24T06:21:48;11.00;99.90
5461;DHT22;2753;49.196;8.286;2022-12-24T06:24:14;11.00;99.90
5461;DHT22;2753;49.196;8.286;2022-12-24T06:26:40;11.00;99.90
5461;DHT22;2753;49.196;8.286;2022-12-24T06:29:06;11.10;99.90
5461;DHT22;2753;49.196;8.286;2022-12-24T06:31:31;11.10;99.90
5461;DHT22;2753;49.196;8.286;2022-12-24T06:33:57;11.10;99.90
5461;DHT22;2753;49.196;8.286;2022-12-24T06:36:24;11.10;99.90
5461;DHT22;2753;49.196;8.286;2022-12-24T06:38:51;11.10;99.90
5461;DHT22;2753;49.196;8.286;2022-12-24T06:41:17;11.10;99.90
5461;DHT22;2753;49.196;8.286;2022-12-24T06:43:45;11.10;99.90
5461;DHT22;2753;49.196;8.286;2022-12-24T06:46:11;11.10;99.90
5461;DHT22;2753;49.196;8.286;2022-12-24T06:48:36;11.10;99.90
5461;DHT22;2753;49.196;8.286;2022-12-24T06:51:02;11.10;99.90
5461;DHT22;2753;49.196;8.286;2022-12-24T06:53:29;11.10;99.90
5461;DHT22;2753;49.196;8.286;2022-12-24T06:56:09;11.10;99.90
5461;DHT22;2753;49.196;8.286;2022-12-24T06:58:35;11.00;99.90
5461;DHT22;2753;49.196;8.286;2022-12-24T07:01:03;11.00;99.90
5461;DHT22;2753;49.196;8.286;2022-12-24T07:03:29;11.00;99.90
5461;DHT22;2753;49.196;8.286;2022-12-24T07:05:55;11.00;99.90
5461;DHT22;2753;49.196;8.286;2022-12-24T07:08:21;11.00;99.90
5461;DHT22;2753;49.196;8.286;2022-12-24T07:10:50;11.00;99.90
5461;DHT22;2753;49.196;8.286;2022-12-24T07:13:17;11.00;99.90
5461;DHT22;2753;49.196;8.286;2022-12-24T07:15:43;11.00;99.90
5461;DHT22;2753;49.196;8.286;2022-12-24T07:18:09;11.00;99.90
5461;DHT22;2753;49.196;8.286;2022-12-24T07:20:34;11.00;99.90
5461;DHT22;2753;49.196;8.286;2022-12-24T07:23:00;10.90;99.90
5461;DHT22;2753;49.196;8.286;2022-12-24T07:25:26;11.00;99.90
5461;DHT22;2753;49.196;8.286;2022-12-24T07:27:52;11.00;99.90
5461;DHT22;2753;49.196;8.286;2022-12-24T07:30:17;11.00;99.90
5461;DHT22;2753;49.196;8.286;2022-12-24T07:32:43;10.90;99.90
5461;DHT22;2753;49.196;8.286;2022-12-24T07:35:09;11.00;99.90
5461;DHT22;2753;49.196;8.286;2022-12-24T07:37:35;10.90;99.90
5461;DHT22;2753;49.196;8.286;2022-12-24T07:40:00;10.90;99.90
5461;DHT22;2753;49.196;8.286;2022-12-24T07:42:27;10.90;99.90
5461;DHT22;2753;49.196;8.286;2022-12-24T07:44:53;10.90;99.90
5461;DHT22;2753;49.196;8.286;2022-12-24T07:47:19;10.80;99.90
5461;DHT22;2753;49.196;8.286;2022-12-24T07:49:44;10.80;99.90
5461;DHT22;2753;49.196;8.286;2022-12-24T07:52:10;10.80;99.90
5461;DHT22;2753;49.196;8.286;2022-12-24T07:54:36;10.80;99.90
5461;DHT22;2753;49.196;8.286;2022-12-24T07:57:01;10.80;99.90
5461;DHT22;2753;49.196;8.286;2022-12-24T07:59:27;10.80;99.90
5461;DHT22;2753;49.196;8.286;2022-12-24T08:01:52;10.80;99.90
5461;DHT22;2753;49.196;8.286;2022-12-24T08:04:18;10.80;99.90
5461;DHT22;2753;49.196;8.286;2022-12-24T08:06:44;10.80;99.90
5461;DHT22;2753;49.196;8.286;2022-12-24T08:09:10;10.70;99.90
5461;DHT22;2753;49.196;8.286;2022-12-24T08:11:35;10.80;99.90
5461;DHT22;2753;49.196;8.286;2022-12-24T08:14:01;10.70;99.90
5461;DHT22;2753;49.196;8.286;2022-12-24T08:16:27;10.70;99.90
5461;DHT22;2753;49.196;8.286;2022-12-24T08:18:52;10.10;99.90
5461;DHT22;2753;49.196;8.286;2022-12-24T08:21:18;10.80;99.90
5461;DHT22;2753;49.196;8.286;2022-12-24T08:23:45;10.80;99.90
5461;DHT22;2753;49.196;8.286;2022-12-24T08:26:11;10.80;99.90
5461;DHT22;2753;49.196;8.286;2022-12-24T08:28:37;10.80;99.90
5461;DHT22;2753;49.196;8.286;2022-12-24T08:31:02;10.70;99.90
5461;DHT22;2753;49.196;8.286;2022-12-24T08:33:28;10.70;99.90
5461;DHT22;2753;49.196;8.286;2022-12-24T08:35:55;10.80;99.90
5461;DHT22;2753;49.196;8.286;2022-12-24T08:38:21;10.80;99.90
5461;DHT22;2753;49.196;8.286;2022-12-24T08:40:47;10.80;99.90
5461;DHT22;2753;49.196;8.286;2022-12-24T08:43:15;10.80;99.90
5461;DHT22;2753;49.196;8.286;2022-12-24T08:45:41;10.90;99.90
5461;DHT22;2753;49.196;8.286;2022-12-24T08:48:08;10.90;99.90
5461;DHT22;2753;49.196;8.286;2022-12-24T08:50:37;11.00;99.90
5461;DHT22;2753;49.196;8.286;2022-12-24T08:53:03;11.00;99.90
5461;DHT22;2753;49.196;8.286;2022-12-24T08:55:28;11.00;99.90
5461;DHT22;2753;49.196;8.286;2022-12-24T08:57:54;11.10;99.90
5461;DHT22;2753;49.196;8.286;2022-12-24T09:00:20;11.10;99.90
5461;DHT22;2753;49.196;8.286;2022-12-24T09:02:45;11.10;99.90
5461;DHT22;2753;49.196;8.286;2022-12-24T09:05:12;11.10;99.90
5461;DHT22;2753;49.196;8.286;2022-12-24T09:07:38;11.10;99.90
5461;DHT22;2753;49.196;8.286;2022-12-24T09:10:04;11.20;99.90
5461;DHT22;2753;49.196;8.286;2022-12-24T09:12:30;11.20;99.90
5461;DHT22;2753;49.196;8.286;2022-12-24T09:14:55;11.20;99.90
5461;DHT22;2753;49.196;8.286;2022-12-24T09:17:21;11.20;99.90
5461;DHT22;2753;49.196;8.286;2022-12-24T09:19:47;11.20;99.90
5461;DHT22;2753;49.196;8.286;2022-12-24T09:22:21;11.20;99.90
5461;DHT22;2753;49.196;8.286;2022-12-24T09:24:48;11.20;99.90
5461;DHT22;2753;49.196;8.286;2022-12-24T09:27:13;11.20;99.90
5461;DHT22;2753;49.196;8.286;2022-12-24T09:29:39;11.20;99.90
5461;DHT22;2753;49.196;8.286;2022-12-24T09:32:06;11.20;99.90
5461;DHT22;2753;49.196;8.286;2022-12-24T09:34:32;11.20;99.90
5461;DHT22;2753;49.196;8.286;2022-12-24T09:36:57;11.20;99.90
5461;DHT22;2753;49.196;8.286;2022-12-24T09:39:25;11.30;99.90
5461;DHT22;2753;49.196;8.286;2022-12-24T09:47:15;11.40;99.90
5461;DHT22;2753;49.196;8.286;2022-12-24T09:49:46;11.30;99.90
5461;DHT22;2753;49.196;8.286;2022-12-24T09:55:27;11.40;99.90
5461;DHT22;2753;49.196;8.286;2022-12-24T09:57:55;11.50;99.90
5461;DHT22;2753;49.196;8.286;2022-12-24T10:00:28;11.60;99.90
5461;DHT22;2753;49.196;8.286;2022-12-24T10:02:54;11.60;99.90
5461;DHT22;2753;49.196;8.286;2022-12-24T10:08:19;11.80;99.90
5461;DHT22;2753;49.196;8.286;2022-12-24T10:13:42;11.70;99.90
5461;DHT22;2753;49.196;8.286;2022-12-24T10:21:46;11.70;99.90
5461;DHT22;2753;49.196;8.286;2022-12-24T10:26:51;11.90;99.90
5461;DHT22;2753;49.196;8.286;2022-12-24T10:29:46;12.00;99.90
5461;DHT22;2753;49.196;8.286;2022-12-24T10:32:28;12.10;99.90
5461;DHT22;2753;49.196;8.286;2022-12-24T10:35:07;12.20;99.90
5461;DHT22;2753;49.196;8.286;2022-12-24T10:37:33;12.30;99.90
5461;DHT22;2753;49.196;8.286;2022-12-24T10:40:00;12.40;99.90
5461;DHT22;2753;49.196;8.286;2022-12-24T10:42:39;12.40;99.90
5461;DHT22;2753;49.196;8.286;2022-12-24T10:45:14;12.50;99.90
5461;DHT22;2753;49.196;8.286;2022-12-24T10:47:41;12.50;99.90
5461;DHT22;2753;49.196;8.286;2022-12-24T10:50:29;12.60;99.90
5461;DHT22;2753;49.196;8.286;2022-12-24T10:53:12;12.70;99.90
5461;DHT22;2753;49.196;8.286;2022-12-24T10:55:39;12.70;99.90
5461;DHT22;2753;49.196;8.286;2022-12-24T10:58:12;12.80;99.90
5461;DHT22;2753;49.196;8.286;2022-12-24T11:00:40;12.80;99.90
5461;DHT22;2753;49.196;8.286;2022-12-24T11:05:44;12.90;99.90
5461;DHT22;2753;49.196;8.286;2022-12-24T11:08:15;13.00;99.90
5461;DHT22;2753;49.196;8.286;2022-12-24T11:10:53;13.00;99.90
5461;DHT22;2753;49.196;8.286;2022-12-24T11:13:32;13.00;99.90
5461;DHT22;2753;49.196;8.286;2022-12-24T11:16:06;13.00;99.90
5461;DHT22;2753;49.196;8.286;2022-12-24T11:18:35;13.00;99.90
5461;DHT22;2753;49.196;8.286;2022-12-24T11:21:02;13.00;99.90
5461;DHT22;2753;49.196;8.286;2022-12-24T11:23:29;13.00;99.90
5461;DHT22;2753;49.196;8.286;2022-12-24T11:25:56;13.10;99.90
5461;DHT22;2753;49.196;8.286;2022-12-24T11:28:27;13.10;99.90
5461;DHT22;2753;49.196;8.286;2022-12-24T11:31:19;13.00;99.90
5461;DHT22;2753;49.196;8.286;2022-12-24T11:33:50;13.00;99.90
5461;DHT22;2753;49.196;8.286;2022-12-24T11:36:20;13.00;99.90
5461;DHT22;2753;49.196;8.286;2022-12-24T11:39:09;13.00;99.90
5461;DHT22;2753;49.196;8.286;2022-12-24T11:41:42;12.90;99.90
5461;DHT22;2753;49.196;8.286;2022-12-24T11:44:08;12.90;99.90
5461;DHT22;2753;49.196;8.286;2022-12-24T11:46:40;12.80;99.90
5461;DHT22;2753;49.196;8.286;2022-12-24T11:49:29;12.80;99.90
5461;DHT22;2753;49.196;8.286;2022-12-24T11:54:56;12.80;99.90
5461;DHT22;2753;49.196;8.286;2022-12-24T11:57:27;12.90;99.90
5461;DHT22;2753;49.196;8.286;2022-12-24T11:59:55;12.90;99.90
5461;DHT22;2753;49.196;8.286;2022-12-24T12:02:35;12.90;99.90
5461;DHT22;2753;49.196;8.286;2022-12-24T12:05:07;12.90;99.90
5461;DHT22;2753;49.196;8.286;2022-12-24T12:07:37;12.80;99.90
5461;DHT22;2753;49.196;8.286;2022-12-24T12:10:22;12.80;99.90
5461;DHT22;2753;49.196;8.286;2022-12-24T12:18:41;12.70;99.90
5461;DHT22;2753;49.196;8.286;2022-12-24T12:21:16;12.70;99.90
5461;DHT22;2753;49.196;8.286;2022-12-24T12:23:57;12.70;99.90
5461;DHT22;2753;49.196;8.286;2022-12-24T12:26:28;12.70;99.90
5461;DHT22;2753;49.196;8.286;2022-12-24T12:29:03;12.70;99.90
5461;DHT22;2753;49.196;8.286;2022-12-24T12:31:41;12.60;99.90
5461;DHT22;2753;49.196;8.286;2022-12-24T12:36:45;12.60;99.90
5461;DHT22;2753;49.196;8.286;2022-12-24T12:39:13;12.60;99.90
5461;DHT22;2753;49.196;8.286;2022-12-24T12:50:16;12.40;99.90
5461;DHT22;2753;49.196;8.286;2022-12-24T13:01:26;12.40;99.90
5461;DHT22;2753;49.196;8.286;2022-12-24T13:07:02;12.40;99.90
5461;DHT22;2753;49.196;8.286;2022-12-24T13:20:59;12.30;99.90
5461;DHT22;2753;49.196;8.286;2022-12-24T13:23:25;12.30;99.90
5461;DHT22;2753;49.196;8.286;2022-12-24T13:25:53;12.30;99.90
5461;DHT22;2753;49.196;8.286;2022-12-24T13:36:08;12.30;99.90
5461;DHT22;2753;49.196;8.286;2022-12-24T13:49:27;12.40;99.90
5461;DHT22;2753;49.196;8.286;2022-12-24T13:55:06;12.40;99.90
5461;DHT22;2753;49.196;8.286;2022-12-24T13:57:42;12.40;99.90
5461;DHT22;2753;49.196;8.286;2022-12-24T14:08:16;12.40;99.90
5461;DHT22;2753;49.196;8.286;2022-12-24T14:11:14;12.40;99.90
5461;DHT22;2753;49.196;8.286;2022-12-24T14:19:02;12.30;99.90
5461;DHT22;2753;49.196;8.286;2022-12-24T14:21:34;12.30;99.90
5461;DHT22;2753;49.196;8.286;2022-12-24T14:24:09;12.30;99.90
5461;DHT22;2753;49.196;8.286;2022-12-24T14:26:48;12.30;99.90
5461;DHT22;2753;49.196;8.286;2022-12-24T14:29:31;12.40;99.90
5461;DHT22;2753;49.196;8.286;2022-12-24T14:31:58;12.30;99.90
5461;DHT22;2753;49.196;8.286;2022-12-24T14:34:25;12.30;99.90
5461;DHT22;2753;49.196;8.286;2022-12-24T14:36:53;12.30;99.90
5461;DHT22;2753;49.196;8.286;2022-12-24T14:39:31;12.30;99.90
5461;DHT22;2753;49.196;8.286;2022-12-24T14:47:56;12.30;99.90
5461;DHT22;2753;49.196;8.286;2022-12-24T14:50:50;12.20;99.90
5461;DHT22;2753;49.196;8.286;2022-12-24T14:56:15;12.20;99.90
5461;DHT22;2753;49.196;8.286;2022-12-24T14:58:42;12.20;99.90
5461;DHT22;2753;49.196;8.286;2022-12-24T15:01:26;12.10;99.90
5461;DHT22;2753;49.196;8.286;2022-12-24T15:04:13;12.10;99.90
5461;DHT22;2753;49.196;8.286;2022-12-24T15:09:21;12.00;99.90
5461;DHT22;2753;49.196;8.286;2022-12-24T15:11:49;12.10;99.90
5461;DHT22;2753;49.196;8.286;2022-12-24T15:14:17;12.00;99.90
5461;DHT22;2753;49.196;8.286;2022-12-24T15:16:56;12.00;99.90
5461;DHT22;2753;49.196;8.286;2022-12-24T15:19:26;12.00;99.90
5461;DHT22;2753;49.196;8.286;2022-12-24T15:21:53;11.90;99.90
5461;DHT22;2753;49.196;8.286;2022-12-24T15:24:31;11.90;99.90
5461;DHT22;2753;49.196;8.286;2022-12-24T15:26:58;11.90;99.90
5461;DHT22;2753;49.196;8.286;2022-12-24T15:29:29;11.90;99.90
5461;DHT22;2753;49.196;8.286;2022-12-24T15:31:58;11.90;99.90
5461;DHT22;2753;49.196;8.286;2022-12-24T15:37:23;11.90;99.90
5461;DHT22;2753;49.196;8.286;2022-12-24T15:39:55;11.80;99.90
5461;DHT22;2753;49.196;8.286;2022-12-24T15:42:25;11.80;99.90
5461;DHT22;2753;49.196;8.286;2022-12-24T15:45:04;11.80;99.90
5461;DHT22;2753;49.196;8.286;2022-12-24T15:47:41;11.80;99.90
5461;DHT22;2753;49.196;8.286;2022-12-24T15:50:44;11.80;99.90
5461;DHT22;2753;49.196;8.286;2022-12-24T15:53:21;11.80;99.90
5461;DHT22;2753;49.196;8.286;2022-12-24T15:56:25;11.80;99.90
5461;DHT22;2753;49.196;8.286;2022-12-24T16:12:02;11.70;99.90
5461;DHT22;2753;49.196;8.286;2022-12-24T16:14:29;11.70;99.90
5461;DHT22;2753;49.196;8.286;2022-12-24T16:16:58;11.70;99.90
5461;DHT22;2753;49.196;8.286;2022-12-24T16:19:24;11.70;99.90
5461;DHT22;2753;49.196;8.286;2022-12-24T16:21:57;11.70;99.90
5461;DHT22;2753;49.196;8.286;2022-12-24T16:24:26;11.60;99.90
5461;DHT22;2753;49.196;8.286;2022-12-24T16:26:53;11.60;99.90
5461;DHT22;2753;49.196;8.286;2022-12-24T16:29:19;11.60;99.90
5461;DHT22;2753;49.196;8.286;2022-12-24T16:31:46;11.60;99.90
5461;DHT22;2753;49.196;8.286;2022-12-24T16:34:14;11.60;99.90
5461;DHT22;2753;49.196;8.286;2022-12-24T16:36:45;11.60;99.90
5461;DHT22;2753;49.196;8.286;2022-12-24T16:39:30;11.60;99.90
5461;DHT22;2753;49.196;8.286;2022-12-24T16:41:58;11.60;99.90
5461;DHT22;2753;49.196;8.286;2022-12-24T16:44:44;11.60;99.90
5461;DHT22;2753;49.196;8.286;2022-12-24T16:47:23;11.40;99.90
5461;DHT22;2753;49.196;8.286;2022-12-24T16:49:50;11.50;99.90
5461;DHT22;2753;49.196;8.286;2022-12-24T16:52:19;11.50;99.90
5461;DHT22;2753;49.196;8.286;2022-12-24T16:54:47;11.40;99.90
5461;DHT22;2753;49.196;8.286;2022-12-24T16:57:13;11.40;99.90
5461;DHT22;2753;49.196;8.286;2022-12-24T16:59:39;11.40;99.90
5461;DHT22;2753;49.196;8.286;2022-12-24T17:02:05;11.50;99.90
5461;DHT22;2753;49.196;8.286;2022-12-24T17:04:33;11.40;99.90
5461;DHT22;2753;49.196;8.286;2022-12-24T17:06:59;11.40;99.90
5461;DHT22;2753;49.196;8.286;2022-12-24T17:09:25;11.40;99.90
5461;DHT22;2753;49.196;8.286;2022-12-24T17:11:53;11.40;99.90
5461;DHT22;2753;49.196;8.286;2022-12-24T17:14:19;11.40;99.90
5461;DHT22;2753;49.196;8.286;2022-12-24T17:16:45;11.40;99.90
5461;DHT22;2753;49.196;8.286;2022-12-24T17:19:10;11.40;99.90
5461;DHT22;2753;49.196;8.286;2022-12-24T17:21:36;11.30;99.90
5461;DHT22;2753;49.196;8.286;2022-12-24T17:24:02;11.30;99.90
5461;DHT22;2753;49.196;8.286;2022-12-24T17:26:34;11.30;99.90
5461;DHT22;2753;49.196;8.286;2022-12-24T17:29:09;11.30;99.90
5461;DHT22;2753;49.196;8.286;2022-12-24T17:31:35;11.30;99.90
5461;DHT22;2753;49.196;8.286;2022-12-24T17:34:03;11.30;99.90
5461;DHT22;2753;49.196;8.286;2022-12-24T17:36:40;11.30;99.90
5461;DHT22;2753;49.196;8.286;2022-12-24T17:39:08;11.20;99.90
5461;DHT22;2753;49.196;8.286;2022-12-24T17:41:35;11.20;99.90
5461;DHT22;2753;49.196;8.286;2022-12-24T17:44:14;11.20;99.90
5461;DHT22;2753;49.196;8.286;2022-12-24T17:46:48;11.20;99.90
5461;DHT22;2753;49.196;8.286;2022-12-24T17:49:16;11.20;99.90
5461;DHT22;2753;49.196;8.286;2022-12-24T17:51:48;11.30;99.90
5461;DHT22;2753;49.196;8.286;2022-12-24T17:54:19;11.30;99.90
5461;DHT22;2753;49.196;8.286;2022-12-24T17:56:45;11.30;99.90
5461;DHT22;2753;49.196;8.286;2022-12-24T17:59:11;11.30;99.90
5461;DHT22;2753;49.196;8.286;2022-12-24T18:01:49;11.20;99.90
5461;DHT22;2753;49.196;8.286;2022-12-24T18:04:26;11.30;99.90
5461;DHT22;2753;49.196;8.286;2022-12-24T18:06:56;11.30;99.90
5461;DHT22;2753;49.196;8.286;2022-12-24T18:09:29;11.30;99.90
5461;DHT22;2753;49.196;8.286;2022-12-24T18:12:00;11.30;99.90
5461;DHT22;2753;49.196;8.286;2022-12-24T18:14:31;11.30;99.90
5461;DHT22;2753;49.196;8.286;2022-12-24T18:16:59;11.20;99.90
5461;DHT22;2753;49.196;8.286;2022-12-24T18:19:37;11.20;99.90
5461;DHT22;2753;49.196;8.286;2022-12-24T18:22:06;11.20;99.90
5461;DHT22;2753;49.196;8.286;2022-12-24T18:24:38;11.20;99.90
5461;DHT22;2753;49.196;8.286;2022-12-24T18:27:06;11.20;99.90
5461;DHT22;2753;49.196;8.286;2022-12-24T18:29:38;11.10;99.90
5461;DHT22;2753;49.196;8.286;2022-12-24T18:32:11;11.10;99.90
5461;DHT22;2753;49.196;8.286;2022-12-24T18:34:43;11.10;99.90
5461;DHT22;2753;49.196;8.286;2022-12-24T18:37:17;11.00;99.90
5461;DHT22;2753;49.196;8.286;2022-12-24T18:39:59;11.00;99.90
5461;DHT22;2753;49.196;8.286;2022-12-24T18:42:27;11.00;99.90
5461;DHT22;2753;49.196;8.286;2022-12-24T18:44:58;11.00;99.90
5461;DHT22;2753;49.196;8.286;2022-12-24T18:47:27;11.00;99.90
5461;DHT22;2753;49.196;8.286;2022-12-24T18:49:56;11.00;99.90
5461;DHT22;2753;49.196;8.286;2022-12-24T18:52:38;11.00;99.90
5461;DHT22;2753;49.196;8.286;2022-12-24T18:55:11;11.00;99.90